ADDS METAR Data INFO
IDs: Format: Raw Decoded Include TAF

Data at: 1753 UTC 15 Dec 2017

K3J7 151735Z AUTO 24007KT 10SM CLR 10/01 A3000 RMK AO2
K3J7 151715Z AUTO 26007KT 220V280 10SM CLR 10/01 A3000 RMK AO2
K3J7 151655Z AUTO 27007KT 10SM CLR 10/02 A3000 RMK AO2
K3J7 151635Z AUTO 26006KT 10SM CLR 10/02 A3000 RMK AO2
K3J7 151615Z AUTO 25006KT 10SM CLR 10/02 A3001 RMK AO2
K3J7 151555Z AUTO 28004KT 10SM CLR 10/02 A3000 RMK AO2
K3J7 151535Z AUTO 30006KT 10SM CLR 10/01 A3001 RMK AO2
K3J7 151515Z AUTO 29006KT 10SM CLR 08/02 A3001 RMK AO2
K3J7 151455Z AUTO 27006KT 10SM CLR 08/03 A3002 RMK AO2
K3J7 151435Z AUTO 27003KT 10SM CLR 07/03 A3000 RMK AO2
K3J7 151415Z AUTO 27005KT 10SM CLR 06/02 A2999 RMK AO2
K3J7 151355Z AUTO 28004KT 10SM CLR 05/02 A2999 RMK AO2
K3J7 151335Z AUTO 28004KT 10SM CLR 05/03 A2998 RMK AO2
K3J7 151315Z AUTO 00000KT 10SM CLR 03/02 A2998 RMK AO2
K3J7 151255Z AUTO 00000KT 10SM CLR 04/02 A2997 RMK AO2
K3J7 151235Z AUTO 00000KT 10SM CLR 03/02 A2997 RMK AO2
K3J7 151215Z AUTO 00000KT 10SM CLR 03/03 A2996 RMK AO2
K3J7 151155Z AUTO 00000KT 10SM CLR 04/03 A2996 RMK AO2
K3J7 151135Z AUTO 00000KT 10SM CLR 03/02 A2996 RMK AO2
K3J7 151115Z AUTO 00000KT 10SM CLR 03/02 A2996 RMK AO2
K3J7 151055Z AUTO 00000KT 10SM CLR 03/02 A2995 RMK AO2
K3J7 151035Z AUTO 00000KT 10SM CLR 03/02 A2995 RMK AO2
K3J7 151015Z AUTO 00000KT 10SM CLR 04/02 A2995 RMK AO2
K3J7 150955Z AUTO 00000KT 10SM CLR 04/03 A2995 RMK AO2
K3J7 150935Z AUTO 00000KT 10SM CLR 04/03 A2995 RMK AO2
K3J7 150915Z AUTO 00000KT 10SM CLR 05/03 A2995 RMK AO2
K3J7 150855Z AUTO 00000KT 10SM CLR 05/03 A2995 RMK AO2
K3J7 150835Z AUTO 00000KT 10SM CLR 05/03 A2995 RMK AO2
K3J7 150815Z AUTO 00000KT 10SM CLR 05/03 A2995 RMK AO2
K3J7 150755Z AUTO 00000KT 10SM CLR 05/03 A2995 RMK AO2
K3J7 150735Z AUTO 00000KT 10SM CLR 06/03 A2995 RMK AO2
K3J7 150715Z AUTO 00000KT 10SM CLR 06/03 A2995 RMK AO2
K3J7 150655Z AUTO 00000KT 10SM CLR 06/03 A2996 RMK AO2
K3J7 150635Z AUTO 00000KT 10SM CLR 06/03 A2996 RMK AO2
K3J7 150615Z AUTO 00000KT 10SM CLR 06/03 A2996 RMK AO2
K3J7 150555Z AUTO 00000KT 10SM CLR 06/03 A2996 RMK AO2
K3J7 150535Z AUTO 00000KT 10SM CLR 07/03 A2996 RMK AO2
K3J7 150515Z AUTO 00000KT 10SM CLR 08/03 A2996 RMK AO2
K3J7 150455Z AUTO 00000KT 10SM CLR 08/03 A2996 RMK AO2
K3J7 150435Z AUTO 00000KT 10SM CLR 08/03 A2996 RMK AO2
K3J7 150415Z AUTO 00000KT 10SM CLR 08/03 A2997 RMK AO2
K3J7 150355Z AUTO 00000KT 10SM CLR 08/03 A2997 RMK AO2
K3J7 150335Z AUTO 00000KT 10SM CLR 08/03 A2996 RMK AO2
K3J7 150315Z AUTO 00000KT 10SM CLR 08/03 A2996 RMK AO2
K3J7 150255Z AUTO 00000KT 10SM CLR 10/03 A2996 RMK AO2
K3J7 150235Z AUTO 00000KT 10SM CLR 10/03 A2996 RMK AO2
K3J7 150215Z AUTO 00000KT 10SM CLR 09/03 A2995 RMK AO2
K3J7 150200Z AUTO 00000KT 10SM CLR 10/03 A2995 RMK AO2
K3J7 150135Z AUTO 00000KT 10SM CLR 10/03 A2995 RMK AO2
K3J7 150115Z AUTO 21003KT 10SM CLR 10/03 A2994 RMK AO2
K3J7 150055Z AUTO 00000KT 10SM CLR 10/03 A2994 RMK AO2
K3J7 150035Z AUTO 00000KT 10SM CLR 09/03 A2993 RMK AO2
K3J7 150015Z AUTO 19003KT 10SM CLR 09/03 A2993 RMK AO2
K3J7 142355Z AUTO 00000KT 10SM CLR 10/03 A2991 RMK AO2
K3J7 142335Z AUTO 19003KT 10SM CLR 10/03 A2991 RMK AO2
K3J7 142315Z AUTO 19003KT 10SM CLR 10/03 A2991 RMK AO2
K3J7 142255Z AUTO 18005KT 10SM CLR 11/02 A2991 RMK AO2
K3J7 142235Z AUTO 19003KT 10SM CLR 11/02 A2990 RMK AO2
K3J7 142215Z AUTO 22003KT 10SM CLR 12/02 A2991 RMK AO2
K3J7 142155Z AUTO 22004KT 10SM CLR 13/02 A2990 RMK AO2
K3J7 142135Z AUTO 22005KT 10SM CLR 13/02 A2990 RMK AO2
K3J7 142115Z AUTO 22004KT 10SM CLR 14/02 A2990 RMK AO2
K3J7 142055Z AUTO 23005KT 10SM CLR 14/02 A2989 RMK AO2
K3J7 142035Z AUTO 23008KT 10SM CLR 15/01 A2989 RMK AO2
K3J7 142015Z AUTO 22005KT 10SM CLR 15/01 A2988 RMK AO2
K3J7 141955Z AUTO 24006KT 10SM CLR 15/01 A2988 RMK AO2
K3J7 141935Z AUTO 24007KT 10SM CLR 15/01 A2987 RMK AO2
K3J7 141915Z AUTO 24006KT 10SM CLR 15/01 A2987 RMK AO2
K3J7 141855Z AUTO 21009KT 10SM CLR 15/02 A2987 RMK AO2
K3J7 141835Z AUTO 24005KT 10SM CLR 15/01 A2988 RMK AO2
K3J7 141815Z AUTO 22006KT 10SM CLR 15/01 A2988 RMK AO2
K3J7 141755Z AUTO 21008KT 10SM CLR 15/01 A2988 RMK AO2
K3J7 141735Z AUTO 23006KT 10SM CLR 15/01 A2988 RMK AO2
K3J7 141715Z AUTO 26004KT 10SM CLR 13/01 A2989 RMK AO2
K3J7 141655Z AUTO 22005KT 10SM CLR 13/01 A2990 RMK AO2
K3J7 141635Z AUTO 20005KT 10SM CLR 12/01 A2990 RMK AO2
K3J7 141615Z AUTO 25004KT 10SM CLR 11/01 A2990 RMK AO2
K3J7 141555Z AUTO 23004KT 10SM CLR 11/01 A2990 RMK AO2
K3J7 141535Z AUTO 28007KT 10SM CLR 10/00 A2990 RMK AO2
K3J7 141515Z AUTO 27007KT 10SM CLR 09/00 A2990 RMK AO2
K3J7 141455Z AUTO 26006KT 10SM CLR 08/00 A2989 RMK AO2
K3J7 141435Z AUTO 26005KT 10SM CLR 07/00 A2989 RMK AO2
K3J7 141415Z AUTO 24006KT 10SM CLR 06/00 A2988 RMK AO2
K3J7 141355Z AUTO 25004KT 10SM CLR 06/00 A2988 RMK AO2
K3J7 141335Z AUTO 25005KT 10SM CLR 05/00 A2988 RMK AO2
K3J7 141315Z AUTO 25004KT 10SM CLR 05/00 A2987 RMK AO2
K3J7 141255Z AUTO 25004KT 10SM CLR 05/00 A2987 RMK AO2
K3J7 141235Z AUTO 24004KT 10SM CLR 04/00 A2986 RMK AO2
K3J7 141215Z AUTO 22003KT 10SM CLR 03/00 A2985 RMK AO2
K3J7 141155Z AUTO 23003KT 10SM CLR 04/00 A2985 RMK AO2
K3J7 141135Z AUTO 24003KT 10SM CLR 04/00 A2984 RMK AO2
K3J7 141115Z AUTO 23004KT 10SM CLR 05/00 A2983 RMK AO2
K3J7 141055Z AUTO 23004KT 10SM CLR 05/00 A2983 RMK AO2
K3J7 141035Z AUTO 24003KT 10SM CLR 05/00 A2981 RMK AO2
K3J7 141015Z AUTO 24004KT 10SM CLR 05/00 A2981 RMK AO2
K3J7 140955Z AUTO 23003KT 10SM CLR 05/M01 A2980 RMK AO2
K3J7 140935Z AUTO 24004KT 10SM CLR 05/M01 A2980 RMK AO2
K3J7 140915Z AUTO 23004KT 10SM CLR 04/M01 A2981 RMK AO2
K3J7 140855Z AUTO 23003KT 10SM CLR 05/M02 A2981 RMK AO2
K3J7 140835Z AUTO 23005KT 10SM CLR 05/M02 A2981 RMK AO2
K3J7 140815Z AUTO 23006KT 10SM CLR 04/M02 A2981 RMK AO2
K3J7 140755Z AUTO 22004KT 10SM CLR 04/M03 A2982 RMK AO2
K3J7 140735Z AUTO 22005KT 10SM CLR 04/M03 A2981 RMK AO2
K3J7 140715Z AUTO 22004KT 10SM CLR 04/M03 A2981 RMK AO2
K3J7 140655Z AUTO 22004KT 10SM CLR 05/M04 A2981 RMK AO2
K3J7 140635Z AUTO 23006KT 10SM CLR 05/M04 A2981 RMK AO2
K3J7 140615Z AUTO 23006KT 10SM CLR 05/M05 A2982 RMK AO2
K3J7 140555Z AUTO 23005KT 10SM CLR 05/M05 A2983 RMK AO2